Time;durP1;ratioP1;P1;durP2;ratioP2;P2;SDS_P1;SDS_P2;PMS_P1;PMS_P2;Temp;Humidity;BMP_temperature;BMP_pressure;BME280_temperature;BME280_humidity;BME280_pressure;Samples;Min_cycle;Max_cycle;Signal;HPM_P1;HPM_P2
2023/06/03 00:01:32;;;;;;;1.87;0.90;;;;;;;12.10;50.21;102176.41;5061850;28;20201;-83
2023/06/03 00:03:58;;;;;;;0.90;0.80;;;;;;;12.07;50.90;102170.28;5062987;28;20205;-85
2023/06/03 00:06:25;;;;;;;1.30;0.53;;;;;;;11.99;51.22;102146.72;5062790;28;20256;-85
2023/06/03 00:08:51;;;;;;;1.83;1.53;;;;;;;11.98;50.87;102137.09;5062449;28;20289;-83
2023/06/03 00:11:19;;;;;;;0.70;0.70;;;;;;;11.91;50.10;102128.38;5062114;28;20224;-83
2023/06/03 00:13:45;;;;;;;3.70;0.80;;;;;;;11.88;49.56;102149.25;5062766;28;20275;-84
2023/06/03 00:16:12;;;;;;;1.53;0.70;;;;;;;11.91;48.68;102151.94;5061916;28;20291;-84
2023/06/03 00:18:38;;;;;;;2.50;0.60;;;;;;;11.93;48.77;102175.47;5061957;28;20208;-84
2023/06/03 00:21:05;;;;;;;2.70;0.63;;;;;;;11.86;49.25;102190.25;5062794;28;20259;-84
2023/06/03 00:23:32;;;;;;;0.70;0.60;;;;;;;11.80;49.58;102202.44;5062669;28;20742;-84
2023/06/03 00:25:58;;;;;;;1.47;0.80;;;;;;;11.80;49.62;102177.16;5062896;28;20256;-85
2023/06/03 00:28:26;;;;;;;1.80;0.67;;;;;;;11.84;48.93;102173.66;5062624;28;20258;-84
2023/06/03 00:30:52;;;;;;;2.60;0.93;;;;;;;11.79;49.38;102178.00;5062335;28;20207;-83
2023/06/03 00:33:18;;;;;;;0.67;0.60;;;;;;;11.79;49.18;102182.34;5062135;28;20303;-84
2023/06/03 00:35:45;;;;;;;3.27;1.00;;;;;;;11.75;50.04;102196.31;5059922;28;20699;-83
2023/06/03 00:38:11;;;;;;;0.97;0.70;;;;;;;11.71;50.17;102184.94;5059103;28;20690;-85
2023/06/03 00:40:38;;;;;;;1.83;0.80;;;;;;;11.66;50.46;102173.59;5060592;28;20209;-84
2023/06/03 00:43:04;;;;;;;1.00;0.53;;;;;;;11.63;51.03;102169.22;5062507;28;20247;-84
2023/06/03 00:45:32;;;;;;;1.40;0.70;;;;;;;11.42;52.71;102161.28;5062594;28;20249;-85
2023/06/03 00:47:58;;;;;;;3.70;0.70;;;;;;;11.23;54.27;102136.75;5063023;28;20201;-84
2023/06/03 00:50:25;;;;;;;0.83;0.80;;;;;;;11.15;55.27;102091.41;5064400;28;20232;-85
2023/06/03 00:52:52;;;;;;;1.20;0.67;;;;;;;11.15;55.64;102047.84;5063002;28;20252;-85
2023/06/03 00:55:20;;;;;;;2.00;0.60;;;;;;;11.11;55.45;102006.91;5063849;28;20259;-82
2023/06/03 00:57:47;;;;;;;1.17;0.60;;;;;;;11.11;55.66;101983.38;5063171;28;20248;-84
2023/06/03 01:00:14;;;;;;;1.03;0.60;;;;;;;11.06;55.55;101972.91;5063210;28;20210;-84
2023/06/03 01:02:43;;;;;;;0.63;0.60;;;;;;;10.94;55.82;101965.00;5063721;28;20572;-84
2023/06/03 01:05:11;;;;;;;3.47;0.50;;;;;;;10.87;56.43;101956.28;5063646;28;20277;-83
2023/06/03 01:07:47;;;;;;;2.27;0.80;;;;;;;10.73;56.01;101945.75;5062529;28;20230;-84
2023/06/03 01:10:22;;;;;;;2.97;0.80;;;;;;;10.71;56.90;101939.66;5063297;28;20205;-82
2023/06/03 01:12:54;;;;;;;1.00;0.90;;;;;;;10.68;56.27;101920.50;5063298;28;20248;-85
2023/06/03 01:15:23;;;;;;;0.70;0.57;;;;;;;10.62;56.76;101908.28;5063847;28;20206;-84
2023/06/03 01:17:52;;;;;;;0.63;0.60;;;;;;;10.48;57.41;101905.59;5062732;28;20244;-84
2023/06/03 01:20:26;;;;;;;1.33;0.63;;;;;;;10.31;58.24;101900.31;5063955;28;20208;-84
2023/06/03 01:22:58;;;;;;;0.70;0.70;;;;;;;10.32;57.85;101888.13;5063458;28;20236;-84
2023/06/03 01:25:26;;;;;;;1.90;0.80;;;;;;;10.24;58.36;101880.22;5063577;28;20581;-84
2023/06/03 01:27:53;;;;;;;0.80;0.70;;;;;;;10.21;58.43;101861.94;5070981;28;20272;-81
2023/06/03 01:30:21;;;;;;;0.50;0.50;;;;;;;10.26;58.20;101855.00;5077228;28;20206;-82
2023/06/03 01:32:49;;;;;;;0.83;0.60;;;;;;;10.19;58.46;101854.94;5077219;28;20189;-82
2023/06/03 01:35:16;;;;;;;0.60;0.60;;;;;;;10.10;58.50;101850.56;5075443;28;20206;-83
2023/06/03 01:37:43;;;;;;;0.70;0.70;;;;;;;10.08;58.86;101847.94;5064673;28;20313;-83
2023/06/03 01:40:11;;;;;;;2.23;0.73;;;;;;;9.92;58.83;101846.09;5063564;28;20235;-85
2023/06/03 01:42:39;;;;;;;2.83;1.00;;;;;;;9.94;59.18;101842.63;5062207;28;20199;-82
2023/06/03 01:45:06;;;;;;;1.27;0.70;;;;;;;10.01;59.22;101829.63;5054745;28;20292;-83
2023/06/03 01:47:34;;;;;;;1.03;0.93;;;;;;;9.92;60.03;101826.09;5054662;28;20275;-84
2023/06/03 01:50:00;;;;;;;0.90;0.70;;;;;;;9.94;59.88;101813.94;5054670;28;20668;-84
2023/06/03 01:52:26;;;;;;;0.83;0.80;;;;;;;9.89;60.36;101805.25;5054229;28;20235;-83
2023/06/03 01:54:53;;;;;;;1.67;0.80;;;;;;;9.80;60.25;101805.16;5055051;28;20232;-84
2023/06/03 01:57:19;;;;;;;0.73;0.50;;;;;;;9.72;60.74;101802.50;5054713;28;20229;-84
2023/06/03 01:59:47;;;;;;;0.97;0.63;;;;;;;9.78;60.38;101791.25;5054926;28;20707;-84
2023/06/03 02:02:13;;;;;;;0.80;0.70;;;;;;;9.65;60.52;101782.50;5056790;28;20271;-83
2023/06/03 02:04:40;;;;;;;1.53;0.70;;;;;;;9.67;59.85;101787.69;5056653;28;20255;-83
2023/06/03 02:07:08;;;;;;;1.50;0.83;;;;;;;9.70;59.78;101785.97;5060666;28;20501;-83
2023/06/03 02:09:34;;;;;;;1.57;0.70;;;;;;;9.59;59.52;101799.81;5055502;28;20267;-82
2023/06/03 02:12:01;;;;;;;1.83;0.80;;;;;;;9.51;59.91;101795.44;5053832;28;20777;-82
2023/06/03 02:14:29;;;;;;;1.03;0.90;;;;;;;9.49;60.17;101802.38;5056922;28;20229;-82
2023/06/03 02:16:58;;;;;;;1.80;0.93;;;;;;;9.53;60.39;101792.81;5054311;28;20237;-82
2023/06/03 02:19:26;;;;;;;0.93;0.83;;;;;;;9.45;61.59;101797.97;5054583;28;20648;-83
2023/06/03 02:21:56;;;;;;;4.20;0.87;;;;;;;9.52;61.33;101780.66;5054504;28;20213;-82
2023/06/03 02:24:23;;;;;;;1.13;0.90;;;;;;;9.55;60.87;101772.84;5054680;28;20206;-80
2023/06/03 02:26:50;;;;;;;1.37;0.80;;;;;;;9.53;60.78;101770.25;5054590;28;20256;-82
2023/06/03 02:29:18;;;;;;;0.97;0.60;;;;;;;9.50;62.45;101771.97;5054977;28;20205;-83
2023/06/03 02:31:45;;;;;;;1.70;0.90;;;;;;;9.46;61.23;101758.03;5054781;28;20209;-83
2023/06/03 02:34:12;;;;;;;1.43;0.80;;;;;;;9.48;61.58;101761.50;5054647;28;20233;-83
2023/06/03 02:36:39;;;;;;;1.13;0.80;;;;;;;9.51;61.64;101765.88;5054627;28;20259;-84
2023/06/03 02:39:07;;;;;;;1.47;0.70;;;;;;;9.50;61.83;101766.75;5054372;28;20216;-83
2023/06/03 02:41:33;;;;;;;2.60;0.90;;;;;;;9.40;62.15;101751.91;5054002;28;20644;-83
2023/06/03 02:44:00;;;;;;;0.90;0.60;;;;;;;9.38;61.92;101751.03;5054383;28;20228;-84
2023/06/03 02:46:26;;;;;;;1.67;0.90;;;;;;;9.31;62.77;101752.69;5054088;28;20283;-83
2023/06/03 02:48:52;;;;;;;1.43;0.90;;;;;;;9.26;63.45;101734.44;5053691;28;20209;-83
2023/06/03 02:51:20;;;;;;;1.47;0.97;;;;;;;9.29;63.43;101716.19;5054248;28;20263;-82
2023/06/03 02:53:46;;;;;;;2.07;1.40;;;;;;;9.22;64.05;101697.94;5057651;28;20298;-82
2023/06/03 02:56:12;;;;;;;2.03;1.00;;;;;;;9.11;64.46;101695.22;5058205;28;20726;-83
2023/06/03 02:58:40;;;;;;;1.10;0.70;;;;;;;9.07;64.91;101683.06;5058082;28;20672;-82
2023/06/03 03:01:07;;;;;;;1.80;0.90;;;;;;;9.07;64.25;101665.69;5058031;28;20205;-82
2023/06/03 03:03:35;;;;;;;1.00;0.90;;;;;;;9.04;64.12;101664.78;5058750;28;20206;-82
2023/06/03 03:06:03;;;;;;;0.83;0.83;;;;;;;9.09;64.00;101655.28;5059090;28;20268;-80
2023/06/03 03:08:31;;;;;;;1.83;0.70;;;;;;;9.10;63.96;101659.66;5058654;28;20577;-82
2023/06/03 03:10:57;;;;;;;1.37;0.70;;;;;;;9.00;64.65;101665.63;5058820;28;20209;-83
2023/06/03 03:13:23;;;;;;;1.20;0.63;;;;;;;9.07;64.70;101660.47;5059011;28;20255;-84
2023/06/03 03:15:50;;;;;;;1.20;0.70;;;;;;;8.92;65.07;101650.84;5058319;28;20591;-84
2023/06/03 03:18:17;;;;;;;1.77;1.67;;;;;;;8.97;64.70;101637.84;5059852;28;20228;-82
2023/06/03 03:20:43;;;;;;;0.90;0.83;;;;;;;8.95;64.48;101642.16;5060375;28;20745;-83
2023/06/03 03:23:13;;;;;;;3.40;0.90;;;;;;;8.88;64.42;101653.38;5060809;28;20205;-84
2023/06/03 03:25:41;;;;;;;2.63;0.90;;;;;;;8.77;64.81;101665.47;5063555;28;20205;-83
2023/06/03 03:28:07;;;;;;;1.83;0.80;;;;;;;8.92;65.24;101665.59;5064373;28;20239;-84
2023/06/03 03:30:37;;;;;;;2.77;1.10;;;;;;;8.74;66.06;101654.16;5063966;28;20209;-84
2023/06/03 03:33:03;;;;;;;1.30;1.20;;;;;;;8.86;66.22;101632.56;5057341;28;20204;-84
2023/06/03 03:35:30;;;;;;;0.70;0.70;;;;;;;8.79;65.91;101628.16;5057087;28;20248;-82
2023/06/03 03:38:02;;;;;;;1.73;0.90;;;;;;;8.74;65.63;101619.44;5056529;28;20637;-84
2023/06/03 03:40:30;;;;;;;2.27;1.10;;;;;;;8.67;65.49;101628.94;5055532;28;20582;-82
2023/06/03 03:42:59;;;;;;;1.20;0.83;;;;;;;8.74;65.70;101619.44;5056819;28;20197;-82
2023/06/03 03:45:29;;;;;;;1.13;1.03;;;;;;;8.85;66.89;101611.72;5057145;28;20209;-82
2023/06/03 03:48:00;;;;;;;2.27;0.90;;;;;;;8.84;67.19;101604.75;5056307;28;20622;-82
2023/06/03 03:50:42;;;;;;;1.00;0.80;;;;;;;8.89;67.32;101585.69;5057614;28;20190;-81
2023/06/03 03:53:11;;;;;;;0.80;0.80;;;;;;;8.95;64.86;101571.84;5056846;28;20213;-84
2023/06/03 03:55:41;;;;;;;2.07;1.00;;;;;;;9.09;63.07;101604.06;5056759;28;20225;-82
2023/06/03 03:58:23;;;;;;;3.97;0.93;;;;;;;9.24;61.90;101652.78;5056657;28;20210;-82
2023/06/03 04:00:50;;;;;;;2.47;0.80;;;;;;;9.34;60.35;101688.44;5058791;28;20205;-81
2023/06/03 04:03:17;;;;;;;1.17;0.80;;;;;;;9.43;60.04;101731.94;5056178;28;20579;-82
2023/06/03 04:05:45;;;;;;;1.20;0.77;;;;;;;9.45;59.82;101760.59;5056684;28;20216;-82
2023/06/03 04:08:16;;;;;;;1.43;0.87;;;;;;;9.48;59.79;101776.28;5056528;28;20206;-82
2023/06/03 04:10:42;;;;;;;4.83;0.80;;;;;;;9.51;59.73;101792.81;5056749;28;20622;-82
2023/06/03 04:13:10;;;;;;;1.37;0.80;;;;;;;9.56;59.46;101812.84;5056562;28;20275;-82
2023/06/03 04:15:38;;;;;;;2.20;1.07;;;;;;;9.61;59.24;101821.53;5056839;28;20233;-83
2023/06/03 04:18:05;;;;;;;2.27;1.03;;;;;;;9.64;59.37;101818.97;5106876;22;20229;-78
2023/06/03 04:20:40;;;;;;;2.77;1.43;;;;;;;9.64;59.07;101832.00;5090575;28;20247;-78
2023/06/03 04:23:14;;;;;;;1.60;0.97;;;;;;;9.70;58.77;101848.56;5091461;28;20203;-81
2023/06/03 04:25:42;;;;;;;4.93;1.00;;;;;;;9.71;58.69;101862.47;5092048;28;20267;-78
2023/06/03 04:28:08;;;;;;;7.47;0.87;;;;;;;9.76;58.05;101876.41;5090570;28;20221;-78
2023/06/03 04:30:35;;;;;;;1.37;0.70;;;;;;;9.80;57.65;101875.59;5090810;28;20209;-78
2023/06/03 04:33:03;;;;;;;1.70;0.80;;;;;;;9.84;57.85;101894.75;5082663;28;20205;-78
2023/06/03 04:35:30;;;;;;;2.30;0.87;;;;;;;9.89;57.81;101906.06;5082193;28;20773;-78
2023/06/03 04:37:58;;;;;;;0.80;0.80;;;;;;;9.94;57.71;101910.44;5082877;28;20261;-78
2023/06/03 04:40:26;;;;;;;2.63;1.80;;;;;;;9.98;58.39;101921.78;5083409;28;20204;-78
2023/06/03 04:42:53;;;;;;;1.00;0.90;;;;;;;10.02;58.61;101918.34;5083081;28;20759;-78
2023/06/03 04:45:21;;;;;;;1.63;1.07;;;;;;;10.05;58.61;101910.56;5082306;28;20223;-78
2023/06/03 04:47:47;;;;;;;1.20;0.93;;;;;;;10.09;58.97;101909.69;5082135;28;20645;-78
2023/06/03 04:50:19;;;;;;;1.87;1.00;;;;;;;10.12;58.67;101901.88;5082905;28;20205;-78
2023/06/03 04:52:46;;;;;;;0.93;0.90;;;;;;;10.14;58.70;101894.06;5084657;28;20240;-78
2023/06/03 04:55:13;;;;;;;2.37;1.03;;;;;;;10.18;58.90;101890.63;5083447;28;20235;-78
2023/06/03 04:57:39;;;;;;;1.37;0.93;;;;;;;10.23;58.57;101891.53;5081592;28;20224;-78
2023/06/03 05:00:09;;;;;;;4.10;1.13;;;;;;;10.26;59.18;101894.13;5081916;28;20204;-78
2023/06/03 05:02:35;;;;;;;1.97;1.03;;;;;;;10.32;58.29;101896.81;5081347;28;20598;-78
2023/06/03 05:05:03;;;;;;;1.27;1.07;;;;;;;10.34;58.47;101902.91;5081657;28;20238;-78
2023/06/03 05:07:31;;;;;;;1.10;0.87;;;;;;;10.42;58.68;101895.13;5080640;28;20591;-78
2023/06/03 05:09:58;;;;;;;1.47;0.90;;;;;;;10.46;58.23;101885.56;5081125;28;20593;-78
2023/06/03 05:12:25;;;;;;;1.17;1.07;;;;;;;10.49;58.79;101903.88;5080777;28;20256;-78
2023/06/03 05:14:52;;;;;;;3.00;1.20;;;;;;;10.51;59.03;101903.00;5080025;28;20244;-78
2023/06/03 05:17:18;;;;;;;2.13;1.07;;;;;;;10.56;58.71;101895.19;5079945;28;20225;-78
2023/06/03 05:19:44;;;;;;;2.60;1.40;;;;;;;10.64;58.55;101893.47;5082156;28;20303;-78
2023/06/03 05:22:11;;;;;;;1.50;1.13;;;;;;;10.76;58.83;101889.19;5081731;28;20201;-78
2023/06/03 05:24:38;;;;;;;1.47;1.10;;;;;;;10.88;58.79;101890.13;5081002;28;20246;-78
2023/06/03 05:27:05;;;;;;;1.77;1.00;;;;;;;10.99;58.78;101892.75;5080648;28;20232;-78
2023/06/03 05:29:31;;;;;;;1.90;1.10;;;;;;;11.01;58.87;101892.75;5080391;28;20209;-78
2023/06/03 05:31:58;;;;;;;1.10;1.03;;;;;;;11.04;58.88;101887.53;5080956;28;20255;-78
2023/06/03 05:34:24;;;;;;;0.97;0.80;;;;;;;11.07;59.08;101890.16;5080193;28;20644;-78
2023/06/03 05:36:50;;;;;;;1.10;1.03;;;;;;;11.08;59.43;101882.31;5079311;28;20229;-78
2023/06/03 05:39:17;;;;;;;1.07;0.80;;;;;;;11.11;59.10;101887.53;5080118;28;20273;-78
2023/06/03 05:41:45;;;;;;;1.20;0.93;;;;;;;11.15;58.03;101891.03;5084512;28;20205;-78
2023/06/03 05:44:11;;;;;;;2.57;1.00;;;;;;;11.21;58.10;101913.72;5088103;28;20216;-78
2023/06/03 05:46:38;;;;;;;1.60;0.70;;;;;;;11.24;58.12;101914.59;5089642;28;20653;-78
2023/06/03 05:49:04;;;;;;;1.93;0.90;;;;;;;11.30;58.05;101913.75;5087910;28;20263;-79
2023/06/03 05:51:30;;;;;;;1.03;0.70;;;;;;;11.35;58.30;101914.59;5090321;28;20214;-77
2023/06/03 05:53:57;;;;;;;2.13;0.90;;;;;;;11.39;57.84;101916.34;5089603;28;20228;-78
2023/06/03 05:56:23;;;;;;;1.20;1.10;;;;;;;11.43;57.65;101923.31;5089322;28;20267;-79
2023/06/03 05:58:51;;;;;;;1.50;1.00;;;;;;;11.47;56.95;101926.81;5086225;28;20259;-78
2023/06/03 06:01:17;;;;;;;1.67;0.97;;;;;;;11.52;57.19;101941.66;5094041;28;20265;-79
2023/06/03 06:03:43;;;;;;;2.17;0.97;;;;;;;11.58;57.01;101943.41;5100254;28;20258;-79
2023/06/03 06:06:10;;;;;;;1.27;1.17;;;;;;;11.65;56.93;101952.13;5096457;28;20204;-77
2023/06/03 06:08:36;;;;;;;1.57;1.20;;;;;;;11.69;56.94;101952.16;5095537;28;20204;-78
2023/06/03 06:11:02;;;;;;;1.33;1.13;;;;;;;11.72;56.85;101961.72;5081414;28;20201;-78
2023/06/03 06:13:29;;;;;;;3.03;1.10;;;;;;;11.77;55.74;101965.19;5075448;28;20458;-77
2023/06/03 06:15:59;;;;;;;1.37;0.90;;;;;;;11.83;56.66;101990.50;5075445;28;20282;-78
2023/06/03 06:18:25;;;;;;;7.80;2.73;;;;;;;11.90;56.40;101973.97;5074987;28;20233;-78
2023/06/03 06:20:52;;;;;;;3.53;1.10;;;;;;;11.96;57.05;101978.34;5076045;28;20258;-78
2023/06/03 06:23:18;;;;;;;2.23;1.10;;;;;;;11.97;57.19;101965.28;5076572;28;20256;-79
2023/06/03 06:25:48;;;;;;;1.43;1.00;;;;;;;12.04;56.25;101959.16;5077607;28;20263;-78
2023/06/03 06:28:14;;;;;;;1.77;1.40;;;;;;;12.10;55.77;101976.59;5081667;28;20227;-78
2023/06/03 06:30:41;;;;;;;3.67;1.13;;;;;;;12.17;55.35;101980.06;5080545;28;20204;-78
2023/06/03 06:33:08;;;;;;;2.87;1.20;;;;;;;12.22;54.87;101994.03;5061180;28;20206;-78
2023/06/03 06:35:35;;;;;;;2.13;1.23;;;;;;;12.28;54.99;102014.97;5061362;28;20277;-79
2023/06/03 06:38:02;;;;;;;1.10;1.00;;;;;;;12.31;55.14;102022.84;5059337;28;20240;-78
2023/06/03 06:40:31;;;;;;;1.93;1.00;;;;;;;12.36;55.20;102021.06;5070286;28;20202;-79
2023/06/03 06:42:57;;;;;;;4.20;1.30;;;;;;;12.36;55.82;102023.69;5085436;28;20208;-78
2023/06/03 06:45:27;;;;;;;1.53;1.10;;;;;;;12.40;55.74;102014.09;5080998;28;20224;-77
2023/06/03 06:48:02;;;;;;;1.40;1.00;;;;;;;12.47;55.17;102008.00;5079654;28;20227;-78
2023/06/03 06:50:41;;;;;;;1.27;0.83;;;;;;;12.56;54.62;102022.81;5079627;28;20205;-78
2023/06/03 06:53:08;;;;;;;2.27;1.03;;;;;;;12.59;54.41;102031.53;5078729;28;20250;-77
2023/06/03 06:55:48;;;;;;;1.10;1.00;;;;;;;12.68;54.71;102033.25;5080218;28;20224;-78
2023/06/03 06:58:14;;;;;;;1.47;0.90;;;;;;;12.70;54.11;102041.97;5079205;28;20225;-77
2023/06/03 07:00:41;;;;;;;2.03;1.30;;;;;;;12.77;54.02;102045.47;5079849;28;20223;-78
2023/06/03 07:03:09;;;;;;;1.50;1.27;;;;;;;12.83;54.11;102058.56;5079720;28;20245;-78
2023/06/03 07:05:37;;;;;;;2.43;1.10;;;;;;;12.90;53.46;102061.19;5080365;28;20202;-78
2023/06/03 07:08:03;;;;;;;2.23;1.17;;;;;;;12.97;53.46;102066.41;5079750;28;20226;-78
2023/06/03 07:10:30;;;;;;;2.70;1.20;;;;;;;13.02;53.35;102085.59;5078875;28;20270;-77
2023/06/03 07:12:56;;;;;;;2.73;1.00;;;;;;;13.04;53.87;102089.97;5080032;28;20584;-77
2023/06/03 07:15:23;;;;;;;2.20;1.30;;;;;;;13.09;53.97;102077.72;5080008;28;20316;-77
2023/06/03 07:17:50;;;;;;;2.43;1.20;;;;;;;13.19;53.74;102078.56;5079555;28;20237;-78
2023/06/03 07:20:20;;;;;;;2.57;1.13;;;;;;;13.24;53.85;102079.41;5080224;28;20453;-78
2023/06/03 07:22:48;;;;;;;5.93;1.30;;;;;;;13.33;53.12;102081.16;5080025;28;20216;-79
2023/06/03 07:25:30;;;;;;;3.80;1.50;;;;;;;13.38;53.90;102086.38;5081552;28;20202;-78
2023/06/03 07:27:57;;;;;;;1.47;1.33;;;;;;;13.42;53.37;102089.00;5080144;28;20229;-78
2023/06/03 07:30:23;;;;;;;6.17;1.60;;;;;;;13.50;52.96;102086.34;5081769;28;20202;-78
2023/06/03 07:32:52;;;;;;;1.67;1.20;;;;;;;13.53;52.49;102102.06;5081025;28;20207;-79
2023/06/03 07:35:19;;;;;;;2.10;1.20;;;;;;;13.59;52.41;102103.78;5081603;28;20226;-78
2023/06/03 07:37:46;;;;;;;2.10;1.30;;;;;;;13.61;52.65;102123.03;5079721;28;20232;-78
2023/06/03 07:40:16;;;;;;;1.83;1.10;;;;;;;13.66;52.22;102116.88;5081995;28;20199;-79
2023/06/03 07:42:44;;;;;;;2.63;1.17;;;;;;;13.76;51.44;102133.44;5078937;28;20217;-78
2023/06/03 07:45:10;;;;;;;4.20;1.40;;;;;;;13.81;51.85;102152.66;5079650;28;20202;-78
2023/06/03 07:47:36;;;;;;;1.77;1.60;;;;;;;13.92;51.15;102142.13;5078953;28;20224;-78
2023/06/03 07:50:04;;;;;;;1.80;0.90;;;;;;;14.01;49.50;102176.22;5080341;28;20206;-79
2023/06/03 07:52:37;;;;;;;1.23;0.70;;;;;;;14.05;49.26;102214.69;5080533;28;20687;-78
2023/06/03 07:55:07;;;;;;;1.33;0.80;;;;;;;14.12;49.02;102233.91;5080688;28;20223;-79
2023/06/03 07:57:45;;;;;;;1.20;0.83;;;;;;;14.17;48.99;102247.91;5080897;28;20686;-78
2023/06/03 08:00:15;;;;;;;2.20;0.90;;;;;;;14.22;48.89;102267.13;5078452;28;20210;-78
2023/06/03 08:02:41;;;;;;;0.97;0.70;;;;;;;14.26;48.08;102271.47;5075646;28;20212;-79
2023/06/03 08:05:08;;;;;;;1.00;0.67;;;;;;;14.32;49.20;102294.22;5075829;28;20268;-78
2023/06/03 08:07:35;;;;;;;0.90;0.57;;;;;;;14.39;48.82;102292.44;5075568;28;20745;-78
2023/06/03 08:10:01;;;;;;;2.13;0.60;;;;;;;14.45;48.59;102288.03;5075884;28;20664;-78
2023/06/03 08:12:31;;;;;;;0.60;0.60;;;;;;;14.51;47.53;102295.03;5076326;28;20211;-79
2023/06/03 08:15:00;;;;;;;1.90;0.50;;;;;;;14.56;47.24;102313.38;5077358;28;20631;-79
2023/06/03 08:17:38;;;;;;;1.07;0.60;;;;;;;14.60;47.59;102330.91;5078550;28;20282;-79
2023/06/03 08:20:08;;;;;;;0.90;0.60;;;;;;;14.66;46.78;102344.88;5077704;28;20203;-79
2023/06/03 08:22:41;;;;;;;1.27;0.53;;;;;;;14.72;48.53;102375.53;5076827;28;20222;-79
2023/06/03 08:25:09;;;;;;;0.60;0.60;;;;;;;14.75;47.29;102356.25;5077128;28;20245;-78
2023/06/03 08:27:37;;;;;;;1.67;0.70;;;;;;;14.80;47.84;102364.97;5076554;28;20739;-78
2023/06/03 08:30:05;;;;;;;1.60;0.70;;;;;;;14.84;46.92;102345.66;5077960;28;20208;-78
2023/06/03 08:32:33;;;;;;;0.73;0.50;;;;;;;14.88;46.08;102358.81;5078201;28;20238;-79
2023/06/03 08:34:59;;;;;;;0.50;0.50;;;;;;;14.92;51.38;102404.34;5078512;28;20206;-78
2023/06/03 08:37:26;;;;;;;1.27;0.50;;;;;;;14.94;46.58;102334.19;5081938;28;20228;-79
2023/06/03 08:39:55;;;;;;;1.90;0.50;;;;;;;14.99;46.25;102342.09;5079188;28;20242;-79
2023/06/03 08:42:23;;;;;;;0.80;0.47;;;;;;;15.06;45.54;102373.59;5079213;28;20246;-78
2023/06/03 08:45:04;;;;;;;0.93;0.40;;;;;;;15.12;44.21;102391.06;5078241;28;20207;-78
2023/06/03 08:47:36;;;;;;;1.07;0.60;;;;;;;15.17;44.32;102433.16;5077851;28;20231;-79
2023/06/03 08:50:06;;;;;;;1.40;1.03;;;;;;;15.25;45.03;102457.66;5078121;28;20234;-78
2023/06/03 08:52:35;;;;;;;2.10;0.90;;;;;;;15.29;44.45;102462.00;5078127;28;20210;-79
2023/06/03 08:55:02;;;;;;;1.87;0.60;;;;;;;15.31;44.70;102465.50;5078299;28;20211;-79
2023/06/03 08:57:34;;;;;;;0.77;0.40;;;;;;;15.37;44.29;102459.34;5077156;28;20232;-78
2023/06/03 09:00:01;;;;;;;1.43;0.60;;;;;;;15.40;44.52;102464.56;5077195;28;20207;-79
2023/06/03 09:02:29;;;;;;;0.93;0.50;;;;;;;15.43;44.66;102454.03;5077066;28;20204;-79
2023/06/03 09:04:57;;;;;;;0.50;0.50;;;;;;;15.47;43.71;102456.63;5077021;28;20204;-78
2023/06/03 09:07:24;;;;;;;1.33;0.50;;;;;;;15.55;42.67;102469.72;5077896;28;20286;-80
2023/06/03 09:09:51;;;;;;;0.83;0.50;;;;;;;15.58;42.91;102489.88;5076508;28;20261;-79
2023/06/03 09:12:18;;;;;;;0.40;0.40;;;;;;;15.61;43.23;102510.94;5075664;28;20213;-78
2023/06/03 09:14:45;;;;;;;1.20;0.63;;;;;;;15.66;42.54;102506.53;5078537;28;20273;-79
2023/06/03 09:17:11;;;;;;;0.87;0.50;;;;;;;15.68;42.35;102513.53;5081808;28;20233;-79
2023/06/03 09:19:38;;;;;;;0.47;0.43;;;;;;;15.72;41.30;102519.66;5081723;28;20688;-79
2023/06/03 09:22:06;;;;;;;0.50;0.50;;;;;;;15.80;42.74;102544.19;5080603;28;20232;-79
2023/06/03 09:24:33;;;;;;;0.57;0.50;;;;;;;15.82;42.92;102549.47;5081651;28;20204;-79
2023/06/03 09:26:59;;;;;;;0.70;0.70;;;;;;;15.88;40.69;102550.28;5080437;28;20246;-79
2023/06/03 09:29:25;;;;;;;1.70;0.67;;;;;;;15.93;39.69;102570.44;5081430;28;20233;-79
2023/06/03 09:31:53;;;;;;;0.50;0.50;;;;;;;15.99;40.53;102613.41;5081977;28;20230;-79
2023/06/03 09:34:22;;;;;;;2.83;0.50;;;;;;;16.05;40.13;102609.88;5080891;28;20208;-78
2023/06/03 09:36:49;;;;;;;0.70;0.50;;;;;;;16.09;40.13;102624.75;5080607;28;20236;-79
2023/06/03 09:39:32;;;;;;;0.87;0.60;;;;;;;16.13;39.78;102629.13;5081548;28;20212;-79
2023/06/03 09:41:59;;;;;;;0.50;0.50;;;;;;;16.14;40.32;102624.75;5079157;28;20254;-79
2023/06/03 09:44:25;;;;;;;0.50;0.50;;;;;;;16.18;41.34;102632.63;5081610;28;20265;-79
2023/06/03 09:46:52;;;;;;;1.70;0.47;;;;;;;16.23;40.61;102612.38;5081573;28;20485;-79
2023/06/03 09:49:19;;;;;;;0.50;0.50;;;;;;;16.30;40.24;102612.34;5081716;28;20236;-79
2023/06/03 09:51:46;;;;;;;1.03;0.50;;;;;;;16.37;40.06;102629.84;5081134;28;20212;-79
2023/06/03 09:54:14;;;;;;;0.50;0.50;;;;;;;16.43;39.36;102620.13;5079830;28;20208;-78
2023/06/03 09:56:44;;;;;;;0.50;0.40;;;;;;;16.47;38.46;102634.13;5080386;28;20761;-78
2023/06/03 09:59:16;;;;;;;2.10;1.90;;;;;;;16.53;38.39;102671.03;5080256;28;20271;-79
2023/06/03 10:01:42;;;;;;;1.13;0.40;;;;;;;16.60;38.67;102674.47;5079515;28;20207;-79
2023/06/03 10:04:09;;;;;;;0.70;0.70;;;;;;;16.64;39.39;102684.97;5080001;28;20270;-79
2023/06/03 10:06:36;;;;;;;0.40;0.40;;;;;;;16.71;40.86;102693.72;5080719;28;20273;-79
2023/06/03 10:09:17;;;;;;;0.47;0.40;;;;;;;16.81;40.11;102673.44;5081446;28;20208;-78
2023/06/03 10:11:48;;;;;;;0.70;0.70;;;;;;;16.89;37.29;102650.53;5080517;28;20250;-79
2023/06/03 10:14:15;;;;;;;2.33;0.57;;;;;;;16.95;38.11;102684.75;5081096;28;20208;-79
2023/06/03 10:19:22;;;;;;;0.87;0.80;;;;;;;17.09;36.92;102673.19;5051813;28;20322;-84
2023/06/03 10:21:48;;;;;;;1.20;0.53;;;;;;;17.14;36.16;102708.31;5054341;28;20655;-85
2023/06/03 10:24:14;;;;;;;0.63;0.50;;;;;;;17.14;36.35;102739.97;5053185;28;20224;-84
2023/06/03 10:26:41;;;;;;;0.40;0.40;;;;;;;17.17;37.82;102747.88;5052700;28;20205;-85
2023/06/03 10:29:09;;;;;;;0.50;0.50;;;;;;;17.26;36.64;102727.56;5052488;28;20222;-85
2023/06/03 10:31:36;;;;;;;1.30;0.60;;;;;;;17.34;36.84;102739.78;5052542;28;20209;-85
2023/06/03 10:34:04;;;;;;;1.93;0.70;;;;;;;17.36;39.23;102738.91;5052619;28;20208;-85
2023/06/03 10:36:30;;;;;;;0.60;0.60;;;;;;;17.39;37.03;102708.94;5052410;28;20730;-87
2023/06/03 10:38:57;;;;;;;3.23;0.70;;;;;;;17.47;36.90;102715.88;5052473;28;20314;-85
2023/06/03 10:42:12;;;;;;;0.60;0.50;;;;;;;17.56;35.71;102712.28;5052444;28;20270;-86
2023/06/03 10:44:41;;;;;;;0.70;0.70;;;;;;;17.60;37.51;102734.22;5052262;28;20212;-85
2023/06/03 10:47:12;;;;;;;1.43;0.50;;;;;;;17.65;37.36;102732.41;5053979;28;20580;-85
2023/06/03 10:49:42;;;;;;;1.20;0.60;;;;;;;17.76;37.10;102719.06;5053565;28;20589;-85
2023/06/03 10:52:22;;;;;;;1.10;0.60;;;;;;;17.86;36.54;102718.97;4353230;28;10000818;-85
2023/06/03 10:54:58;;;;;;;0.40;0.40;;;;;;;17.92;37.19;102733.88;5052590;28;20220;-85
2023/06/03 10:57:32;;;;;;;0.73;0.50;;;;;;;18.04;35.88;102722.28;5052082;28;20346;-84
2023/06/03 11:00:00;;;;;;;0.70;0.40;;;;;;;18.13;37.06;102727.41;5052625;28;20196;-85
2023/06/03 11:02:26;;;;;;;0.60;0.50;;;;;;;18.24;36.83;102714.06;5052068;28;20212;-84
2023/06/03 11:05:23;;;;;;;0.53;0.53;;;;;;;18.39;34.74;102697.97;5051402;28;20204;-84
2023/06/03 11:07:50;;;;;;;1.37;0.40;;;;;;;18.50;34.37;102745.41;5050219;28;20224;-79
2023/06/03 11:10:42;;;;;;;0.47;0.47;;;;;;;18.55;32.84;102763.84;5049405;28;20218;-80
2023/06/03 11:13:11;;;;;;;0.53;0.50;;;;;;;18.57;33.19;102818.50;5050213;28;20209;-81
2023/06/03 11:16:00;;;;;;;0.73;0.40;;;;;;;18.64;32.70;102843.94;5053184;28;20241;-83
2023/06/03 11:18:26;;;;;;;2.63;0.60;;;;;;;18.71;35.26;102878.25;5053698;28;20229;-82
2023/06/03 11:20:54;;;;;;;0.70;0.40;;;;;;;18.90;35.50;102792.44;5054165;28;20911;-83
2023/06/03 11:23:42;;;;;;;0.83;0.70;;;;;;;19.12;35.64;102790.28;5055848;28;20587;-85
2023/06/03 11:26:30;;;;;;;0.70;0.50;;;;;;;19.32;33.88;102781.13;5050995;28;20208;-83
2023/06/03 11:28:57;;;;;;;0.63;0.63;;;;;;;19.53;33.46;102772.78;5058066;28;20719;-83
2023/06/03 11:31:25;;;;;;;1.23;0.77;;;;;;;20.08;32.90;102781.44;5058274;28;20274;-83
2023/06/03 11:34:26;;;;;;;1.23;0.60;;;;;;;21.32;31.08;102790.91;5058187;28;20216;-84
2023/06/03 11:36:54;;;;;;;1.70;0.40;;;;;;;22.75;28.80;102828.47;5059190;28;20605;-84